createdAt,value
2023-06-23T00:00:38.856Z,677.00
2023-06-23T00:01:38.954Z,675.00
2023-06-23T00:02:38.954Z,671.00
2023-06-23T00:03:38.971Z,665.00
2023-06-23T00:04:38.967Z,647.00
2023-06-23T00:05:39.021Z,636.00
2023-06-23T00:06:39.069Z,631.00
2023-06-23T00:07:39.076Z,627.00
2023-06-23T00:08:39.062Z,630.00
2023-06-23T00:09:39.106Z,626.00
2023-06-23T00:10:39.112Z,621.00
2023-06-23T00:11:39.124Z,617.00
2023-06-23T00:12:39.126Z,615.00
2023-06-23T00:13:39.136Z,619.00
2023-06-23T00:14:39.136Z,619.00
2023-06-23T00:15:39.148Z,621.00
2023-06-23T00:16:39.152Z,623.00
2023-06-23T00:17:39.144Z,623.00
2023-06-23T00:18:39.139Z,627.00
2023-06-23T00:19:39.162Z,629.00
2023-06-23T00:20:39.176Z,630.00
2023-06-23T00:21:39.187Z,634.00
2023-06-23T00:22:39.180Z,636.00
2023-06-23T00:23:39.198Z,634.00
2023-06-23T00:24:39.224Z,634.00
2023-06-23T00:25:39.241Z,636.00
2023-06-23T00:26:39.274Z,641.00
2023-06-23T00:27:39.294Z,643.00
2023-06-23T00:28:39.312Z,644.00
2023-06-23T00:29:39.338Z,640.00
2023-06-23T00:30:39.369Z,643.00
2023-06-23T00:31:39.436Z,645.00
2023-06-23T00:32:39.394Z,644.00
2023-06-23T00:33:39.348Z,651.00
2023-06-23T00:34:39.378Z,647.00
2023-06-23T00:35:39.373Z,652.00
2023-06-23T00:36:39.362Z,651.00
2023-06-23T00:37:39.387Z,650.00
2023-06-23T00:38:39.463Z,653.00
2023-06-23T00:39:39.359Z,659.00
2023-06-23T00:40:39.379Z,659.00
2023-06-23T00:41:39.421Z,656.00
2023-06-23T00:42:39.410Z,657.00
2023-06-23T00:43:39.414Z,659.00
2023-06-23T00:44:39.436Z,657.00
2023-06-23T00:45:39.457Z,663.00
2023-06-23T00:46:39.451Z,671.00
2023-06-23T00:47:39.494Z,671.00
2023-06-23T00:48:39.463Z,674.00
2023-06-23T00:49:39.529Z,679.00
2023-06-23T00:50:39.520Z,681.00
2023-06-23T00:51:39.513Z,670.00
2023-06-23T00:52:39.502Z,660.00
2023-06-23T00:53:39.513Z,661.00
2023-06-23T00:54:39.533Z,659.00
2023-06-23T00:55:39.521Z,661.00
2023-06-23T00:56:39.516Z,669.00
2023-06-23T00:57:39.539Z,663.00
2023-06-23T00:58:39.540Z,662.00
2023-06-23T00:59:39.489Z,664.00
2023-06-23T01:00:39.505Z,664.00
2023-06-23T01:01:39.518Z,673.00
2023-06-23T01:02:39.633Z,665.00
2023-06-23T01:03:39.555Z,674.00
2023-06-23T01:04:39.635Z,683.00
2023-06-23T01:05:39.495Z,672.00
2023-06-23T01:06:39.530Z,665.00
2023-06-23T01:07:39.494Z,664.00
2023-06-23T01:08:39.527Z,667.00
2023-06-23T01:09:39.510Z,666.00
2023-06-23T01:10:39.518Z,660.00
2023-06-23T01:11:39.510Z,666.00
2023-06-23T01:12:39.535Z,669.00
2023-06-23T01:13:39.529Z,665.00
2023-06-23T01:14:39.543Z,672.00
2023-06-23T01:15:39.533Z,667.00
2023-06-23T01:16:39.569Z,674.00
2023-06-23T01:17:39.667Z,675.00
2023-06-23T01:18:39.585Z,662.00
2023-06-23T01:19:39.641Z,659.00
2023-06-23T01:20:39.636Z,660.00
2023-06-23T01:21:39.642Z,660.00
2023-06-23T01:22:39.697Z,665.00
2023-06-23T01:23:39.711Z,658.00
2023-06-23T01:24:39.716Z,660.00
2023-06-23T01:25:39.750Z,666.00
2023-06-23T01:26:39.732Z,664.00
2023-06-23T01:27:39.744Z,663.00
2023-06-23T01:28:39.760Z,664.00
2023-06-23T01:29:39.785Z,662.00
2023-06-23T01:30:39.826Z,663.00
2023-06-23T01:31:39.897Z,662.00
2023-06-23T01:32:39.887Z,661.00
2023-06-23T01:33:39.894Z,657.00
2023-06-23T01:34:39.931Z,656.00
2023-06-23T01:35:39.960Z,657.00
2023-06-23T01:36:40.003Z,657.00
2023-06-23T01:37:40.023Z,660.00
2023-06-23T01:38:40.051Z,654.00
2023-06-23T01:39:40.073Z,651.00
2023-06-23T01:40:40.086Z,650.00
2023-06-23T01:41:40.092Z,649.00
2023-06-23T01:42:40.143Z,648.00
2023-06-23T01:43:40.152Z,649.00
2023-06-23T01:44:40.183Z,644.00
2023-06-23T01:45:40.201Z,652.00
2023-06-23T01:46:40.323Z,649.00
2023-06-23T01:47:40.247Z,647.00
2023-06-23T01:48:40.242Z,649.00
2023-06-23T01:49:40.273Z,649.00
2023-06-23T01:50:40.282Z,646.00
2023-06-23T01:51:40.299Z,648.00
2023-06-23T01:52:40.348Z,653.00
2023-06-23T01:53:40.376Z,652.00
2023-06-23T01:54:40.399Z,646.00
2023-06-23T01:55:40.430Z,649.00
2023-06-23T01:56:40.488Z,650.00
2023-06-23T01:57:40.474Z,650.00
2023-06-23T01:58:40.521Z,648.00
2023-06-23T01:59:40.555Z,646.00
2023-06-23T02:00:40.620Z,643.00
2023-06-23T02:01:40.794Z,642.00
2023-06-23T02:02:40.729Z,644.00
2023-06-23T02:03:40.880Z,644.00
2023-06-23T02:04:40.696Z,645.00
2023-06-23T02:05:40.715Z,646.00
2023-06-23T02:06:40.800Z,642.00
2023-06-23T02:07:40.785Z,646.00
2023-06-23T02:08:40.796Z,641.00
2023-06-23T02:09:40.845Z,641.00
2023-06-23T02:10:40.883Z,642.00
2023-06-23T02:11:40.940Z,635.00
2023-06-23T02:12:40.948Z,632.00
2023-06-23T02:13:40.989Z,627.00
2023-06-23T02:14:41.044Z,627.00
2023-06-23T02:15:41.087Z,623.00
2023-06-23T02:16:41.113Z,624.00
2023-06-23T02:17:41.149Z,617.00
2023-06-23T02:18:41.174Z,613.00
2023-06-23T02:19:41.204Z,613.00
2023-06-23T02:20:41.250Z,612.00
2023-06-23T02:21:41.260Z,606.00
2023-06-23T02:22:41.310Z,608.00
2023-06-23T02:23:41.357Z,606.00
2023-06-23T02:24:41.372Z,607.00
2023-06-23T02:25:41.413Z,608.00
2023-06-23T02:26:41.434Z,607.00
2023-06-23T02:27:41.461Z,605.00
2023-06-23T02:28:41.492Z,601.00
2023-06-23T02:29:41.559Z,607.00
2023-06-23T02:30:41.603Z,606.00
2023-06-23T02:31:41.726Z,602.00
2023-06-23T02:32:41.790Z,606.00
2023-06-23T02:33:41.782Z,604.00
2023-06-23T02:34:41.824Z,602.00
2023-06-23T02:35:41.866Z,601.00
2023-06-23T02:36:41.930Z,602.00
2023-06-23T02:37:41.975Z,603.00
2023-06-23T02:38:42.031Z,600.00
2023-06-23T02:39:42.080Z,600.00
2023-06-23T02:40:42.138Z,604.00
2023-06-23T02:41:42.162Z,602.00
2023-06-23T02:42:42.228Z,601.00
2023-06-23T02:43:42.282Z,601.00
2023-06-23T02:44:42.320Z,603.00
2023-06-23T02:45:42.456Z,603.00
2023-06-23T02:46:42.436Z,600.00
2023-06-23T02:47:42.502Z,600.00
2023-06-23T02:48:42.563Z,600.00
2023-06-23T02:49:42.631Z,605.00
2023-06-23T02:50:42.681Z,608.00
2023-06-23T02:51:42.711Z,600.00
2023-06-23T02:52:42.739Z,602.00
2023-06-23T02:53:42.797Z,605.00
2023-06-23T02:54:42.839Z,602.00
2023-06-23T02:55:42.848Z,602.00
2023-06-23T02:56:42.893Z,601.00
2023-06-23T02:57:42.951Z,607.00
2023-06-23T02:58:42.965Z,608.00
2023-06-23T02:59:43.084Z,609.00
2023-06-23T03:00:43.055Z,606.00
2023-06-23T03:01:43.164Z,606.00
2023-06-23T03:02:43.267Z,612.00
2023-06-23T03:03:43.240Z,615.00
2023-06-23T03:04:43.298Z,621.00
2023-06-23T03:05:43.290Z,621.00
2023-06-23T03:06:43.335Z,627.00
2023-06-23T03:07:43.390Z,624.00
2023-06-23T03:08:43.411Z,629.00
2023-06-23T03:09:43.462Z,629.00
2023-06-23T03:10:43.514Z,632.00
2023-06-23T03:11:43.531Z,627.00
2023-06-23T03:12:43.587Z,622.00
2023-06-23T03:13:43.617Z,622.00
2023-06-23T03:14:43.690Z,621.00
2023-06-23T03:15:43.705Z,624.00
2023-06-23T03:16:43.778Z,627.00
2023-06-23T03:17:43.803Z,628.00
2023-06-23T03:18:43.861Z,638.00
2023-06-23T03:19:43.926Z,643.00
2023-06-23T03:20:43.940Z,645.00
2023-06-23T03:21:43.981Z,650.00
2023-06-23T03:22:44.030Z,652.00
2023-06-23T03:23:44.041Z,660.00
2023-06-23T03:24:44.070Z,660.00
2023-06-23T03:25:44.146Z,664.00
2023-06-23T03:26:44.201Z,666.00
2023-06-23T03:27:44.243Z,679.00
2023-06-23T03:28:44.348Z,685.00
2023-06-23T03:29:44.381Z,704.00
2023-06-23T03:30:44.534Z,705.00
2023-06-23T03:31:44.462Z,716.00
2023-06-23T03:32:44.561Z,727.00
2023-06-23T03:33:44.544Z,743.00
2023-06-23T03:34:44.582Z,742.00
2023-06-23T03:35:44.665Z,758.00
2023-06-23T03:36:44.627Z,756.00
2023-06-23T03:37:44.682Z,763.00
2023-06-23T03:38:44.770Z,783.00
2023-06-23T03:39:44.792Z,799.00
2023-06-23T03:40:44.854Z,818.00
2023-06-23T03:41:44.854Z,831.00
2023-06-23T03:42:44.900Z,843.00
2023-06-23T03:43:44.931Z,849.00
2023-06-23T03:44:44.955Z,851.00
2023-06-23T03:45:44.969Z,844.00
2023-06-23T03:46:45.047Z,849.00
2023-06-23T03:47:45.119Z,862.00
2023-06-23T03:48:44.978Z,859.00
2023-06-23T03:49:44.992Z,863.00
2023-06-23T03:50:44.971Z,855.00
2023-06-23T03:51:45.023Z,843.00
2023-06-23T03:52:45.036Z,844.00
2023-06-23T03:53:45.073Z,844.00
2023-06-23T03:54:45.106Z,837.00
2023-06-23T03:55:45.139Z,853.00
2023-06-23T03:56:45.142Z,850.00
2023-06-23T03:57:45.166Z,848.00
2023-06-23T03:58:45.173Z,868.00
2023-06-23T03:59:45.191Z,845.00
2023-06-23T04:00:45.200Z,851.00
2023-06-23T04:01:45.266Z,853.00
2023-06-23T04:02:45.286Z,847.00
2023-06-23T04:03:45.275Z,852.00
2023-06-23T04:04:45.216Z,858.00
2023-06-23T04:05:45.202Z,863.00
2023-06-23T04:06:45.215Z,848.00
2023-06-23T04:07:45.251Z,843.00
2023-06-23T04:08:45.324Z,854.00
2023-06-23T04:09:45.359Z,857.00
2023-06-23T04:10:45.416Z,863.00
2023-06-23T04:11:45.413Z,861.00
2023-06-23T04:12:45.431Z,864.00
2023-06-23T04:13:45.431Z,857.00
2023-06-23T04:14:45.446Z,851.00
2023-06-23T04:15:45.449Z,838.00
2023-06-23T04:16:45.420Z,842.00
2023-06-23T04:17:45.481Z,846.00
2023-06-23T04:18:45.439Z,851.00
2023-06-23T04:19:45.450Z,863.00
2023-06-23T04:20:45.425Z,869.00
2023-06-23T04:21:45.442Z,865.00
2023-06-23T04:22:45.492Z,862.00
2023-06-23T04:23:45.427Z,843.00
2023-06-23T04:24:45.443Z,846.00
2023-06-23T04:25:45.405Z,839.00
2023-06-23T04:26:45.457Z,832.00
2023-06-23T04:27:45.419Z,823.00
2023-06-23T04:28:45.436Z,829.00
2023-06-23T04:29:45.420Z,818.00
2023-06-23T04:30:45.449Z,817.00
2023-06-23T04:31:45.431Z,812.00
2023-06-23T04:32:45.587Z,830.00
2023-06-23T04:33:45.396Z,831.00
2023-06-23T04:34:45.410Z,828.00
2023-06-23T04:35:45.401Z,822.00
2023-06-23T04:36:45.405Z,823.00
2023-06-23T04:37:45.431Z,819.00
2023-06-23T04:38:45.410Z,823.00
2023-06-23T04:39:45.399Z,817.00
2023-06-23T04:40:45.380Z,811.00
2023-06-23T04:41:45.404Z,816.00
2023-06-23T04:42:45.411Z,810.00
2023-06-23T04:43:45.439Z,812.00
2023-06-23T04:44:45.395Z,828.00
2023-06-23T04:45:45.459Z,831.00
2023-06-23T04:46:45.461Z,849.00
2023-06-23T04:47:45.468Z,837.00
2023-06-23T04:48:45.476Z,823.00
2023-06-23T04:49:45.520Z,832.00
2023-06-23T04:50:45.506Z,833.00
2023-06-23T04:51:45.532Z,849.00
2023-06-23T04:52:45.516Z,851.00
2023-06-23T04:53:45.506Z,852.00
2023-06-23T04:54:45.529Z,859.00
2023-06-23T04:55:45.531Z,860.00
2023-06-23T04:56:45.536Z,870.00
2023-06-23T04:57:45.514Z,876.00
2023-06-23T04:58:45.562Z,883.00
2023-06-23T04:59:45.552Z,880.00
2023-06-23T05:00:45.515Z,882.00
2023-06-23T05:01:45.723Z,882.00
2023-06-23T05:02:45.599Z,878.00
2023-06-23T05:03:45.619Z,877.00
2023-06-23T05:04:45.597Z,883.00
2023-06-23T05:05:45.564Z,880.00
2023-06-23T05:06:45.583Z,880.00
2023-06-23T05:07:45.584Z,878.00
2023-06-23T05:08:45.596Z,878.00
2023-06-23T05:09:45.581Z,884.00
2023-06-23T05:10:45.607Z,894.00
2023-06-23T05:11:45.641Z,890.00
2023-06-23T05:12:45.673Z,896.00
2023-06-23T05:13:45.690Z,892.00
2023-06-23T05:14:45.699Z,901.00
2023-06-23T05:15:45.721Z,900.00
2023-06-23T05:16:45.759Z,905.00
2023-06-23T05:17:45.795Z,901.00
2023-06-23T05:18:45.777Z,901.00
2023-06-23T05:19:45.798Z,899.00
2023-06-23T05:20:45.811Z,905.00
2023-06-23T05:21:45.822Z,903.00
2023-06-23T05:22:45.843Z,907.00
2023-06-23T05:23:52.864Z,899.00
2023-06-23T05:24:46.855Z,899.00
2023-06-23T05:25:45.845Z,898.00
2023-06-23T05:26:45.854Z,884.00
2023-06-23T05:27:45.835Z,892.00
2023-06-23T05:28:45.834Z,901.00
2023-06-23T05:29:45.788Z,900.00
2023-06-23T05:30:45.842Z,891.00
2023-06-23T05:31:45.851Z,893.00
2023-06-23T05:32:45.933Z,891.00
2023-06-23T05:33:45.774Z,885.00
2023-06-23T05:34:45.763Z,891.00
2023-06-23T05:35:47.998Z,890.00
2023-06-23T05:36:45.772Z,894.00
2023-06-23T05:37:45.737Z,910.00
2023-06-23T05:38:45.753Z,918.00
2023-06-23T05:39:45.746Z,935.00
2023-06-23T05:40:45.733Z,933.00
2023-06-23T05:41:45.747Z,947.00
2023-06-23T05:42:45.722Z,962.00
2023-06-23T05:43:45.708Z,990.00
2023-06-23T05:44:45.695Z,1011.00
2023-06-23T05:45:45.905Z,1019.00
2023-06-23T05:46:45.774Z,1037.00
2023-06-23T05:47:45.707Z,1049.00
2023-06-23T05:48:45.704Z,1088.00
2023-06-23T05:49:48.133Z,1123.00
2023-06-23T05:50:45.799Z,1124.00
2023-06-23T05:51:45.817Z,1129.00
2023-06-23T05:52:45.786Z,1142.00
2023-06-23T05:53:45.783Z,1166.00
2023-06-23T05:54:45.774Z,1216.00
2023-06-23T05:55:45.795Z,1245.00
2023-06-23T05:56:45.840Z,1251.00
2023-06-23T05:57:45.828Z,1273.00
2023-06-23T05:58:45.830Z,1290.00
2023-06-23T05:59:45.832Z,1314.00
2023-06-23T06:00:45.877Z,1307.00
2023-06-23T06:01:45.830Z,1299.00
2023-06-23T06:02:45.892Z,1303.00
2023-06-23T06:03:45.985Z,1296.00
2023-06-23T06:04:45.870Z,1270.00
2023-06-23T06:05:45.826Z,1279.00
2023-06-23T06:06:45.827Z,1278.00
2023-06-23T06:07:45.856Z,1269.00
2023-06-23T06:08:45.855Z,1264.00
2023-06-23T06:09:45.854Z,1257.00
2023-06-23T06:10:45.832Z,1274.00
2023-06-23T06:11:45.802Z,1266.00
2023-06-23T06:12:46.836Z,1279.00
2023-06-23T06:13:45.837Z,1284.00
2023-06-23T06:14:45.858Z,1290.00
2023-06-23T06:15:45.818Z,1318.00
2023-06-23T06:16:45.836Z,1333.00
2023-06-23T06:17:45.874Z,1327.00
2023-06-23T06:18:45.836Z,1312.00
2023-06-23T06:19:45.877Z,1290.00
2023-06-23T06:20:45.845Z,1258.00
2023-06-23T06:21:45.842Z,1259.00
2023-06-23T06:22:45.883Z,1265.00
2023-06-23T06:23:45.924Z,1268.00
2023-06-23T06:24:46.373Z,1274.00
2023-06-23T06:25:46.056Z,1285.00
2023-06-23T06:26:46.090Z,1282.00
2023-06-23T06:27:46.105Z,1271.00
2023-06-23T06:28:46.162Z,1301.00
2023-06-23T06:29:46.230Z,1310.00
2023-06-23T06:30:46.258Z,1311.00
2023-06-23T06:31:46.305Z,1297.00
2023-06-23T06:32:46.345Z,1320.00
2023-06-23T06:33:46.390Z,1326.00
2023-06-23T06:34:46.440Z,1320.00
2023-06-23T06:35:46.485Z,1312.00
2023-06-23T06:36:46.549Z,1306.00
2023-06-23T06:37:46.575Z,1295.00
2023-06-23T06:38:46.638Z,1284.00
2023-06-23T06:39:46.669Z,1274.00
2023-06-23T06:40:46.712Z,1279.00
2023-06-23T06:41:46.746Z,1278.00
2023-06-23T06:42:46.770Z,1283.00
2023-06-23T06:43:46.815Z,1274.00
2023-06-23T06:44:46.857Z,1271.00
2023-06-23T06:45:46.893Z,1285.00
2023-06-23T06:46:47.019Z,1321.00
2023-06-23T06:47:47.052Z,1339.00
2023-06-23T06:48:47.097Z,1349.00
2023-06-23T06:49:47.196Z,1340.00
2023-06-23T06:50:47.216Z,1339.00
2023-06-23T06:51:47.248Z,1322.00
2023-06-23T06:52:47.267Z,1326.00
2023-06-23T06:53:47.281Z,1337.00
2023-06-23T06:54:47.283Z,1328.00
2023-06-23T06:55:47.251Z,1344.00
2023-06-23T06:56:47.288Z,1352.00
2023-06-23T06:57:47.346Z,1350.00
2023-06-23T06:58:47.380Z,1371.00
2023-06-23T06:59:47.431Z,1381.00
2023-06-23T07:00:47.536Z,1373.00
2023-06-23T07:01:47.707Z,1382.00
2023-06-23T07:02:47.647Z,1383.00
2023-06-23T07:03:47.738Z,1408.00
2023-06-23T07:04:47.734Z,1389.00
2023-06-23T07:05:47.773Z,1377.00
2023-06-23T07:06:47.797Z,1385.00
2023-06-23T07:07:47.902Z,1393.00
2023-06-23T07:08:47.897Z,1399.00
2023-06-23T07:09:47.962Z,1397.00
2023-06-23T07:10:48.007Z,1381.00
2023-06-23T07:11:48.047Z,1373.00
2023-06-23T07:12:48.083Z,1385.00
2023-06-23T07:13:48.140Z,1386.00
2023-06-23T07:14:48.188Z,1395.00
2023-06-23T07:15:48.278Z,1398.00
2023-06-23T07:16:48.280Z,1400.00
2023-06-23T07:17:48.369Z,1415.00
2023-06-23T07:18:48.387Z,1426.00
2023-06-23T07:19:48.429Z,1435.00
2023-06-23T07:20:48.509Z,1445.00
2023-06-23T07:21:48.514Z,1452.00
2023-06-23T07:22:48.591Z,1454.00
2023-06-23T07:23:48.627Z,1467.00
2023-06-23T07:24:48.691Z,1475.00
2023-06-23T07:25:48.761Z,1482.00
2023-06-23T07:26:48.781Z,1489.00
2023-06-23T07:27:48.865Z,1497.00
2023-06-23T07:28:48.914Z,1495.00
2023-06-23T07:29:48.957Z,1506.00
2023-06-23T07:30:49.199Z,1515.00
2023-06-23T07:31:49.151Z,1512.00
2023-06-23T07:32:49.195Z,1521.00
2023-06-23T07:33:49.486Z,1517.00
2023-06-23T07:34:49.242Z,1530.00
2023-06-23T07:35:49.317Z,1514.00
2023-06-23T07:36:49.344Z,1524.00
2023-06-23T07:37:49.426Z,1515.00
2023-06-23T07:38:49.455Z,1538.00
2023-06-23T07:39:49.492Z,1526.00
2023-06-23T07:40:49.463Z,1509.00
2023-06-23T07:41:50.262Z,1524.00
2023-06-23T07:42:49.713Z,1539.00
2023-06-23T07:43:49.607Z,1535.00
2023-06-23T07:44:49.678Z,1509.00
2023-06-23T07:45:49.839Z,1471.00
2023-06-23T07:46:49.818Z,1434.00
2023-06-23T07:47:49.864Z,1427.00
2023-06-23T07:48:49.876Z,1447.00
2023-06-23T07:49:49.998Z,1418.00
2023-06-23T07:50:50.004Z,1415.00
2023-06-23T07:51:50.045Z,1439.00
2023-06-23T07:52:50.121Z,1428.00
2023-06-23T07:54:05.329Z,1416.00
2023-06-23T07:54:51.194Z,1412.00
2023-06-23T07:55:50.171Z,1381.00
2023-06-23T07:56:50.160Z,1364.00
2023-06-23T07:57:50.141Z,1356.00
2023-06-23T07:58:50.139Z,1323.00
2023-06-23T07:59:50.132Z,1320.00
2023-06-23T08:00:50.125Z,1321.00
2023-06-23T08:01:50.105Z,1311.00
2023-06-23T08:02:50.290Z,1299.00
2023-06-23T08:03:50.199Z,1311.00
2023-06-23T08:04:50.228Z,1308.00
2023-06-23T08:05:50.371Z,1301.00
2023-06-23T08:06:50.313Z,1294.00
2023-06-23T08:07:50.390Z,1288.00
2023-06-23T08:08:50.422Z,1271.00
2023-06-23T08:09:50.465Z,1277.00
2023-06-23T08:10:50.491Z,1260.00
2023-06-23T08:11:50.499Z,1268.00
2023-06-23T08:12:50.568Z,1270.00
2023-06-23T08:13:50.611Z,1254.00
2023-06-23T08:14:50.700Z,1255.00
2023-06-23T08:15:50.764Z,1244.00
2023-06-23T08:16:50.862Z,1238.00
2023-06-23T08:17:51.715Z,1241.00
2023-06-23T08:18:50.853Z,1228.00
2023-06-23T08:19:50.920Z,1236.00
2023-06-23T08:20:50.922Z,1227.00
2023-06-23T08:21:51.019Z,1213.00
2023-06-23T08:22:50.920Z,1200.00
2023-06-23T08:23:50.950Z,1215.00
2023-06-23T08:24:51.166Z,1216.00
2023-06-23T08:25:50.990Z,1208.00
2023-06-23T08:26:51.020Z,1215.00
2023-06-23T08:27:51.097Z,1211.00
2023-06-23T08:28:51.146Z,1217.00
2023-06-23T08:29:51.237Z,1222.00
2023-06-23T08:30:51.386Z,1240.00
2023-06-23T08:31:51.447Z,1229.00
2023-06-23T08:32:51.437Z,1244.00
2023-06-23T08:33:51.464Z,1238.00
2023-06-23T08:34:51.558Z,1242.00
2023-06-23T08:35:51.674Z,1249.00
2023-06-23T08:36:51.622Z,1256.00
2023-06-23T08:37:51.690Z,1231.00
2023-06-23T08:38:51.766Z,1223.00
2023-06-23T08:39:51.849Z,1210.00
2023-06-23T08:40:51.853Z,1190.00
2023-06-23T08:41:51.888Z,1180.00
2023-06-23T08:42:51.899Z,1170.00
2023-06-23T08:43:51.880Z,1134.00
2023-06-23T08:44:51.930Z,1130.00
2023-06-23T08:45:51.901Z,1127.00
2023-06-23T08:47:04.759Z,1114.00
2023-06-23T08:47:53.044Z,1115.00
2023-06-23T08:48:51.936Z,1114.00
2023-06-23T08:49:51.892Z,1107.00
2023-06-23T08:51:46.257Z,600.00
2023-06-23T08:52:46.265Z,600.00
2023-06-23T08:53:46.272Z,600.00
2023-06-23T08:54:46.233Z,600.00
2023-06-23T08:55:46.255Z,600.00
2023-06-23T08:56:46.213Z,601.00
2023-06-23T08:57:46.226Z,600.00
2023-06-23T08:58:46.266Z,606.00
2023-06-23T08:59:46.228Z,604.00
2023-06-23T09:00:46.229Z,601.00
2023-06-23T09:01:46.256Z,600.00
2023-06-23T09:02:46.301Z,600.00
2023-06-23T09:03:46.191Z,601.00
2023-06-23T09:04:46.171Z,603.00
2023-06-23T09:05:46.170Z,600.00
2023-06-23T09:06:46.138Z,604.00
2023-06-23T09:07:46.151Z,600.00
2023-06-23T09:08:46.217Z,605.00
2023-06-23T09:09:46.232Z,601.00
2023-06-23T09:10:46.223Z,603.00
2023-06-23T09:11:46.198Z,602.00
2023-06-23T09:12:46.188Z,605.00
2023-06-23T09:13:46.190Z,605.00
2023-06-23T09:14:46.191Z,602.00
2023-06-23T09:16:00.840Z,601.00
2023-06-23T09:16:47.206Z,601.00
2023-06-23T09:17:46.236Z,594.00
2023-06-23T09:18:46.180Z,588.00
2023-06-23T09:19:46.159Z,586.00
2023-06-23T09:20:47.113Z,579.00
2023-06-23T09:21:46.198Z,600.00
2023-06-23T09:22:46.115Z,600.00
2023-06-23T09:23:46.125Z,603.00
2023-06-23T09:24:46.121Z,601.00
2023-06-23T09:25:46.117Z,600.00
2023-06-23T09:26:46.120Z,603.00
2023-06-23T09:27:46.139Z,603.00
2023-06-23T09:28:46.155Z,603.00
2023-06-23T09:29:46.155Z,606.00
2023-06-23T09:30:46.159Z,608.00
2023-06-23T09:31:46.148Z,609.00
2023-06-23T09:32:46.217Z,613.00
2023-06-23T09:33:46.185Z,614.00
2023-06-23T09:34:46.201Z,621.00
2023-06-23T09:35:46.218Z,630.00
2023-06-23T09:36:46.218Z,625.00
2023-06-23T09:37:46.217Z,629.00
2023-06-23T09:38:46.246Z,635.00
2023-06-23T09:39:46.259Z,633.00
2023-06-23T09:40:46.272Z,637.00
2023-06-23T09:41:52.538Z,638.00
2023-06-23T09:42:47.297Z,638.00
2023-06-23T09:43:46.290Z,641.00
2023-06-23T09:44:46.292Z,649.00
2023-06-23T09:45:46.243Z,685.00
2023-06-23T09:46:46.251Z,730.00
2023-06-23T09:47:46.290Z,736.00
2023-06-23T09:48:46.256Z,778.00
2023-06-23T09:49:46.238Z,807.00
2023-06-23T09:50:46.242Z,813.00
2023-06-23T09:51:46.230Z,822.00
2023-06-23T09:52:46.237Z,850.00
2023-06-23T09:53:46.206Z,849.00
2023-06-23T09:54:46.239Z,874.00
2023-06-23T09:55:46.199Z,868.00
2023-06-23T09:56:46.177Z,898.00
2023-06-23T09:57:46.389Z,883.00
2023-06-23T09:58:46.211Z,888.00
2023-06-23T09:59:46.221Z,900.00
2023-06-23T10:00:46.187Z,905.00
2023-06-23T10:01:46.165Z,898.00
2023-06-23T10:02:47.029Z,912.00
2023-06-23T10:03:46.408Z,923.00
2023-06-23T10:04:46.294Z,928.00
2023-06-23T10:05:46.341Z,919.00
2023-06-23T10:06:46.397Z,946.00
2023-06-23T10:07:46.467Z,974.00
2023-06-23T10:08:46.565Z,1002.00
2023-06-23T10:09:46.585Z,1017.00
2023-06-23T10:10:46.660Z,989.00
2023-06-23T10:11:46.697Z,990.00
2023-06-23T10:12:46.757Z,1016.00
2023-06-23T10:13:46.982Z,1032.00
2023-06-23T10:14:46.904Z,1019.00
2023-06-23T10:15:46.911Z,1011.00
2023-06-23T10:16:46.931Z,999.00
2023-06-23T10:17:46.994Z,1004.00
2023-06-23T10:18:47.094Z,999.00
2023-06-23T10:19:47.091Z,994.00
2023-06-23T10:20:47.133Z,1040.00
2023-06-23T10:21:47.165Z,1025.00
2023-06-23T10:22:47.240Z,1008.00
2023-06-23T10:23:47.211Z,1014.00
2023-06-23T10:24:47.266Z,998.00
2023-06-23T10:25:47.290Z,1001.00
2023-06-23T10:26:47.292Z,1006.00
2023-06-23T10:27:47.330Z,1041.00
2023-06-23T10:28:47.314Z,1049.00
2023-06-23T10:29:47.366Z,1064.00
2023-06-23T10:30:47.359Z,1065.00
2023-06-23T10:31:47.415Z,1074.00
2023-06-23T10:32:47.448Z,1106.00
2023-06-23T10:33:47.402Z,1128.00
2023-06-23T10:34:47.458Z,1131.00
2023-06-23T10:35:47.492Z,1132.00
2023-06-23T10:36:47.492Z,1104.00
2023-06-23T10:37:47.582Z,1111.00
2023-06-23T10:38:47.609Z,1140.00
2023-06-23T10:39:47.631Z,1026.00
2023-06-23T10:40:47.722Z,1045.00
2023-06-23T10:41:47.713Z,1114.00
2023-06-23T10:42:47.783Z,1132.00
2023-06-23T10:43:47.774Z,1145.00
2023-06-23T10:44:47.830Z,1152.00
2023-06-23T10:45:47.826Z,1165.00
2023-06-23T10:46:47.888Z,1182.00
2023-06-23T10:47:48.026Z,1221.00
2023-06-23T10:48:47.985Z,1232.00
2023-06-23T10:49:48.060Z,1257.00
2023-06-23T10:50:48.068Z,1265.00
2023-06-23T10:51:48.139Z,1277.00
2023-06-23T10:52:48.160Z,1282.00
2023-06-23T10:53:48.220Z,1301.00
2023-06-23T10:54:48.323Z,1314.00
2023-06-23T10:56:07.730Z,1331.00
2023-06-23T10:56:49.371Z,1332.00
2023-06-23T10:57:48.324Z,1333.00
2023-06-23T10:58:48.329Z,1338.00
2023-06-23T10:59:48.339Z,1342.00
2023-06-23T11:00:48.362Z,1340.00
2023-06-23T11:01:48.329Z,1356.00
2023-06-23T11:02:48.319Z,1340.00
2023-06-23T11:03:48.267Z,1350.00
2023-06-23T11:04:48.333Z,1353.00
2023-06-23T11:05:48.308Z,1356.00
2023-06-23T11:06:48.390Z,1351.00
2023-06-23T11:07:48.355Z,1352.00
2023-06-23T11:08:48.401Z,1363.00
2023-06-23T11:09:48.490Z,1360.00
2023-06-23T11:10:48.512Z,1355.00
2023-06-23T11:11:48.491Z,1355.00
2023-06-23T11:12:48.522Z,1367.00
2023-06-23T11:13:48.578Z,1371.00
2023-06-23T11:14:48.664Z,1364.00
2023-06-23T11:15:48.622Z,1355.00
2023-06-23T11:16:48.680Z,1368.00
2023-06-23T11:17:48.884Z,1370.00
2023-06-23T11:18:48.819Z,1350.00
2023-06-23T11:19:48.863Z,1344.00
2023-06-23T11:20:48.940Z,1341.00
2023-06-23T11:21:48.974Z,1338.00
2023-06-23T11:22:48.993Z,1339.00
2023-06-23T11:23:49.074Z,1330.00
2023-06-23T11:24:49.130Z,1327.00
2023-06-23T11:25:49.163Z,1328.00
2023-06-23T11:26:49.175Z,1332.00
2023-06-23T11:27:49.212Z,1328.00
2023-06-23T11:28:49.277Z,1335.00
2023-06-23T11:29:49.299Z,1326.00
2023-06-23T11:30:49.378Z,1341.00
2023-06-23T11:31:49.366Z,1337.00
2023-06-23T11:32:49.419Z,1293.00
2023-06-23T11:33:49.459Z,1254.00
2023-06-23T11:34:49.485Z,1234.00
2023-06-23T11:35:49.489Z,1225.00
2023-06-23T11:36:49.526Z,1214.00
2023-06-23T11:37:49.540Z,1208.00
2023-06-23T11:38:49.570Z,1197.00
2023-06-23T11:39:49.574Z,1172.00
2023-06-23T11:40:49.568Z,1157.00
2023-06-23T11:41:49.599Z,1143.00
2023-06-23T11:42:49.618Z,1146.00
2023-06-23T11:43:49.686Z,1133.00
2023-06-23T11:44:49.762Z,1123.00
2023-06-23T11:45:49.741Z,1096.00
2023-06-23T11:46:49.775Z,1084.00
2023-06-23T11:47:49.954Z,1075.00
2023-06-23T11:48:49.904Z,1061.00
2023-06-23T11:49:49.979Z,1072.00
2023-06-23T11:50:50.026Z,1064.00
2023-06-23T11:51:50.088Z,1044.00
2023-06-23T11:52:50.166Z,1030.00
2023-06-23T11:53:50.232Z,1013.00
2023-06-23T11:54:50.293Z,1007.00
2023-06-23T11:55:50.363Z,1013.00
2023-06-23T11:56:50.407Z,1011.00
2023-06-23T11:57:50.472Z,995.00
2023-06-23T11:58:50.524Z,976.00
2023-06-23T11:59:50.594Z,956.00
2023-06-23T12:00:50.641Z,956.00
2023-06-23T12:01:50.716Z,946.00
2023-06-23T12:02:50.913Z,944.00
2023-06-23T12:03:51.153Z,922.00
2023-06-23T12:04:50.974Z,922.00
2023-06-23T12:05:50.812Z,903.00
2023-06-23T12:06:50.797Z,890.00
2023-06-23T12:07:50.818Z,901.00
2023-06-23T12:08:50.909Z,878.00
2023-06-23T12:09:52.535Z,874.00
2023-06-23T12:10:50.789Z,872.00
2023-06-23T12:11:50.821Z,869.00
2023-06-23T12:12:50.858Z,852.00
2023-06-23T12:13:50.841Z,855.00
2023-06-23T12:14:50.828Z,838.00
2023-06-23T12:15:54.221Z,831.00
2023-06-23T12:16:51.813Z,831.00
2023-06-23T12:17:50.829Z,803.00
2023-06-23T12:18:50.761Z,799.00
2023-06-23T12:19:52.759Z,803.00
2023-06-23T12:20:50.764Z,796.00